FW1502 Weather Reports


Display with metric or nautical units.
time (UTC)temp
F
wind
direction
speed
MPH
gust
MPH
rain 1hr
in
rain 24hr
in
rain mn
in
humidity
%
barometer
mb
20191215140103 47 360 8.0 15.0 0.00 0.01 0.00 78 1016.6
20191215134526 46 360 8.0 16.0 0.00 0.01 0.00 81 1016.4
20191215133011 45 360 5.0 14.0 0.00 0.01 0.00 82 1016.2
20191215131512 45 360 6.0 13.0 0.00 0.01 0.00 83 1016.1
20191215130010 44 360 6.0 13.0 0.00 0.01 0.00 83 1015.7
20191215124512 43 360 6.0 12.0 0.00 0.01 0.00 84 1015.2
20191215123309 43 360 5.0 11.0 0.00 0.01 0.00 84 1014.8
20191215121821 43 360 4.0 13.0 0.00 0.01 0.00 84 1014.6
20191215120150 43 360 5.0 11.0 0.00 0.01 0.00 84 1014.3
20191215114804 43 360 5.0 13.0 0.00 0.01 0.00 84 1014.3
20191215113144 43 360 5.0 11.0 0.00 0.01 0.00 83 1014.0
20191215111722 43 360 7.0 13.0 0.00 0.01 0.00 83 1013.7
20191215110249 43 360 6.0 13.0 0.00 0.01 0.00 83 1013.5
20191215104716 44 360 6.0 13.0 0.00 0.01 0.00 83 1013.2
20191215103125 44 360 8.0 13.0 0.00 0.01 0.00 82 1012.9
20191215101720 44 360 7.0 14.0 0.00 0.01 0.00 82 1012.6
20191215100218 44 360 7.0 14.0 0.00 0.01 0.00 81 1012.5
20191215094713 45 360 6.0 14.0 0.00 0.01 0.00 81 1012.3
20191215093208 45 360 7.0 15.0 0.00 0.01 0.00 80 1012.1
20191215091641 45 360 8.0 14.0 0.00 0.01 0.00 80 1011.9
20191215090113 45 360 11.0 17.0 0.00 0.01 0.00 80 1011.7
20191215084758 45 360 8.0 16.0 0.00 0.01 0.00 80 1011.4
20191215083053 45 360 8.0 15.0 0.00 0.01 0.00 79 1011.1
20191215081536 46 360 9.0 18.0 0.00 0.01 0.00 78 1010.8
20191215080030 46 360 9.0 17.0 0.00 0.01 0.00 78 1010.4
20191215074602 46 360 10.0 15.0 0.00 0.01 0.00 78 1010.2
20191215073057 46 360 10.0 19.0 0.00 0.01 0.00 77 1010.0
20191215071520 47 360 12.0 21.0 0.00 0.01 0.00 77 1009.9
20191215070029 47 360 10.0 18.0 0.00 0.02 0.00 77 1009.5
20191215064523 47 360 9.0 19.0 0.00 0.02 0.00 77 1009.2
20191215063018 47 360 13.0 22.0 0.00 0.02 0.00 76 1008.7
20191215061506 48 360 11.0 20.0 0.00 0.02 0.00 77 1008.4
20191215060002 48 360 13.0 23.0 0.00 0.03 0.00 76 1008.0
20191215054749 48 360 11.0 18.0 0.00 0.03 0.00 77 1007.5
20191215053153 48 360 11.0 20.0 0.00 0.03 0.00 78 1007.2
20191215051748 49 360 12.0 20.0 0.00 0.03 0.00 78 1007.1
20191215050303 49 360 12.0 23.0 0.00 0.03 0.00 78 1006.9
20191215044733 50 360 13.0 20.0 0.00 0.11 0.03 80 1006.7
20191215043131 50 360 12.0 23.0 0.00 0.11 0.03 81 1006.4
20191215041702 51 360 9.0 19.0 0.00 0.11 0.03 83 1006.2
20191215040101 51 360 11.0 21.0 0.00 0.11 0.03 84 1006.0
20191215034610 51 360 13.0 20.0 0.00 0.20 0.03 85 1005.6
20191215033111 51 360 11.0 18.0 0.00 0.20 0.03 88 1005.3
20191215031746 51 360 8.0 19.0 0.00 0.20 0.03 88 1005.0
20191215030053 51 360 12.0 19.0 0.00 0.20 0.03 88 1004.4
20191215024617 51 360 12.0 22.0 0.00 0.20 0.03 88 1004.2
20191215023113 51 360 10.0 21.0 0.00 0.20 0.03 88 1003.9
20191215021656 51 360 12.0 22.0 0.00 0.20 0.03 89 1003.7
20191215020123 52 360 11.0 23.0 0.00 0.20 0.03 88 1003.6
20191215014605 52 360 10.0 18.0 0.00 0.21 0.03 88 1003.3
20191215013054 52 360 9.0 17.0 0.00 0.21 0.03 88 1002.9
20191215011712 53 360 10.0 23.0 0.00 0.21 0.03 87 1002.4
20191215010104 53 360 11.0 21.0 0.00 0.25 0.03 88 1002.1
20191215004542 53 360 10.0 22.0 0.00 0.25 0.03 88 1001.8
20191215003039 53 360 7.0 17.0 0.00 0.25 0.03 88 1001.8
20191215001520 54 360 6.0 17.0 0.00 0.25 0.03 87 1001.5
20191215000055 54 360 6.0 17.0 0.00 0.26 0.03 87 1000.9
20191214234517 55 360 7.0 15.0 0.00 0.26 0.03 86 1000.6
20191214233053 56 360 10.0 20.0 0.00 0.26 0.03 86 1000.5
20191214231522 56 360 9.0 20.0 0.00 0.26 0.03 86 1000.2
20191214230009 56 360 10.0 20.0 0.00 0.26 0.03 87 999.9
20191214224509 56 360 11.0 17.0 0.00 0.26 0.03 89 999.7
20191214223011 56 360 7.0 14.0 0.00 0.26 0.03 90 999.3
20191214221507 56 360 9.0 18.0 0.00 0.26 0.03 91 998.7
20191214220002 56 360 7.0 17.0 0.00 0.32 0.03 91 998.4
20191214215004 56 360 8.0 17.0 0.00 0.32 0.03 91 998.2
20191214213237 56 360 6.0 15.0 0.00 0.32 0.03 91 997.9
20191214211706 56 360 7.0 17.0 0.00 0.32 0.03 92 997.7
20191214210216 56 360 4.0 16.0 0.00 0.32 0.03 92 997.5
20191214204943 57 360 4.0 16.0 0.00 0.41 0.03 93 997.2
20191214203151 57 360 5.0 13.0 0.00 0.41 0.03 93 996.9
20191214201743 58 360 4.0 12.0 0.00 0.41 0.03 93 996.4
20191214200142 58 360 6.0 19.0 0.00 0.41 0.03 93 996.3
20191214194734 58 360 7.0 15.0 0.00 0.66 0.03 95 996.0
20191214193127 58 360 10.0 19.0 0.00 0.66 0.03 95 996.0
20191214191712 58 360 6.0 16.0 0.00 0.66 0.03 96 996.2
20191214190254 58 360 7.0 16.0 0.00 0.66 0.03 96 996.2
20191214184616 58 360 9.0 19.0 0.00 1.03 0.03 97 995.9
20191214183253 58 360 8.0 19.0 0.00 1.03 0.03 97 995.9
20191214181702 58 360 7.0 19.0 0.00 1.03 0.03 98 996.0
20191214180239 58 360 7.0 15.0 0.00 1.03 0.03 98 996.0
20191214174821 58 360 7.0 12.0 0.00 1.18 0.03 98 996.0
20191214173205 58 360 6.0 16.0 0.01 1.18 0.03 98 996.1
20191214171738 58 360 6.0 12.0 0.01 1.18 0.03 98 995.8
20191214170115 59 360 6.0 14.0 0.01 1.18 0.03 98 995.8
20191214164618 58 360 5.0 10.0 0.01 1.19 0.03 98 995.9
20191214163150 58 360 3.0 12.0 0.00 1.18 0.02 98 997.0
20191214161705 58 360 4.0 13.0 0.00 1.18 0.02 98 997.1
20191214160142 58 360 4.0 13.0 0.00 1.18 0.02 98 997.2
20191214154729 58 360 5.0 15.0 0.00 1.18 0.02 99 997.6
20191214153058 58 360 5.0 16.0 0.00 1.18 0.02 98 997.9
20191214151643 58 360 5.0 13.0 0.00 1.18 0.02 99 997.5
20191214150111 58 360 3.0 13.0 0.00 1.18 0.02 99 997.9
20191214144558 58 360 3.0 10.0 0.00 1.18 0.02 98 998.5
20191214143127 59 360 3.0 12.0 0.00 1.18 0.02 98 998.5
20191214141558 59 360 4.0 12.0 0.00 1.18 0.02 99 998.7